Time;durP1;ratioP1;P1;durP2;ratioP2;P2;SDS_P1;SDS_P2;PMS_P1;PMS_P2;Temp;Humidity;BMP_temperature;BMP_pressure;BME280_temperature;BME280_humidity;BME280_pressure;Samples;Min_cycle;Max_cycle;Signal;HPM_P1;HPM_P2
2022/06/16 00:00:18;;;;;;;6.65;4.57;;;;;;;14.00;69.95;101826.97;1051090;28;20044;-83
2022/06/16 00:00:49;;;;;;;6.18;4.53;;;;;;;13.97;70.58;101829.22;1053098;28;20498;-83
2022/06/16 00:01:21;;;;;;;7.10;4.40;;;;;;;13.99;70.70;101829.84;1057376;27;20305;-83
2022/06/16 00:01:53;;;;;;;7.05;4.22;;;;;;;13.90;70.44;101824.72;1052208;28;20046;-83
2022/06/16 00:02:25;;;;;;;7.35;3.97;;;;;;;14.03;69.78;101817.66;1048772;28;20032;-83
2022/06/16 00:02:58;;;;;;;5.68;4.22;;;;;;;14.02;71.00;101827.56;1048209;28;20127;-84
2022/06/16 00:03:29;;;;;;;8.82;4.65;;;;;;;13.99;71.68;101832.53;1049657;28;20585;-84
2022/06/16 00:04:01;;;;;;;6.20;4.18;;;;;;;14.03;70.40;101818.50;1053608;27;20040;-84
2022/06/16 00:04:33;;;;;;;11.45;5.38;;;;;;;14.03;70.61;101817.66;1056471;28;20405;-83
2022/06/16 00:05:05;;;;;;;11.90;4.78;;;;;;;14.05;69.84;101820.94;1045440;28;20044;-83
2022/06/16 00:05:40;;;;;;;9.25;4.18;;;;;;;14.03;70.55;101817.66;1046181;28;20033;-84
2022/06/16 00:06:12;;;;;;;5.55;4.00;;;;;;;14.09;69.77;101811.44;1049111;28;20040;-84
2022/06/16 00:06:44;;;;;;;7.90;4.72;;;;;;;14.09;69.90;101816.78;1049966;28;20044;-84
2022/06/16 00:07:16;;;;;;;7.35;4.85;;;;;;;14.16;70.17;101822.94;1052672;28;20044;-83
2022/06/16 00:07:47;;;;;;;9.43;5.03;;;;;;;14.13;69.78;101818.00;1048842;28;20406;-83
2022/06/16 00:08:19;;;;;;;4.72;4.00;;;;;;;14.07;69.59;101818.88;1045817;28;20047;-83
2022/06/16 00:08:51;;;;;;;10.73;4.90;;;;;;;14.03;69.73;101813.13;1048511;28;20032;-84
2022/06/16 00:09:23;;;;;;;6.57;4.43;;;;;;;13.93;70.25;101813.56;1048716;28;20052;-83
2022/06/16 00:09:54;;;;;;;6.88;5.05;;;;;;;13.98;70.35;101830.88;1045228;28;20044;-83
2022/06/16 00:10:26;;;;;;;7.03;4.53;;;;;;;13.96;71.01;101832.94;1051400;28;20066;-83
2022/06/16 00:11:16;;;;;;;5.93;4.70;;;;;;;13.98;70.84;101826.34;1052420;28;20055;-83
2022/06/16 00:11:48;;;;;;;6.97;4.32;;;;;;;13.92;70.84;101832.53;1052650;28;20036;-84
2022/06/16 00:12:21;;;;;;;10.23;4.63;;;;;;;13.95;71.05;101828.59;1050963;28;20155;-83
2022/06/16 00:12:52;;;;;;;5.60;4.22;;;;;;;13.99;71.17;101832.53;1055557;28;20520;-84
2022/06/16 00:13:24;;;;;;;7.55;4.65;;;;;;;13.85;71.28;101832.59;1053934;28;20035;-83
2022/06/16 00:13:55;;;;;;;6.00;4.68;;;;;;;13.87;71.96;101830.50;1051886;28;20036;-84
2022/06/16 00:14:29;;;;;;;7.20;4.60;;;;;;;13.92;70.70;101833.38;1052799;28;20524;-83
2022/06/16 00:15:02;;;;;;;7.28;4.57;;;;;;;13.96;70.73;101832.94;1055282;28;20532;-83
2022/06/16 00:15:33;;;;;;;6.45;4.38;;;;;;;13.94;70.89;101830.47;1055802;28;20032;-84
2022/06/16 00:16:06;;;;;;;9.23;4.68;;;;;;;13.93;71.05;101818.94;1055558;27;20090;-83
2022/06/16 00:16:38;;;;;;;4.78;3.90;;;;;;;13.93;71.58;101829.66;1048094;28;20490;-83
2022/06/16 00:17:10;;;;;;;9.13;4.60;;;;;;;14.00;70.85;101834.16;1044705;28;20053;-83
2022/06/16 00:17:42;;;;;;;7.30;4.88;;;;;;;14.01;70.19;101833.97;1047786;28;20044;-83
2022/06/16 00:18:13;;;;;;;7.13;4.63;;;;;;;13.93;70.30;101829.66;1042007;28;20569;-84
2022/06/16 00:18:45;;;;;;;8.38;4.80;;;;;;;13.94;70.90;101835.81;1041429;28;20030;-84
2022/06/16 00:19:17;;;;;;;7.53;4.88;;;;;;;13.90;71.49;101835.44;1044577;28;20044;-84
2022/06/16 00:19:48;;;;;;;7.00;4.90;;;;;;;13.86;71.12;101836.91;1049467;27;20037;-83
2022/06/16 00:20:20;;;;;;;10.18;5.63;;;;;;;13.93;71.84;101843.03;1060787;27;20781;-83
2022/06/16 00:20:52;;;;;;;7.78;4.68;;;;;;;13.89;72.49;101843.69;1057876;27;20035;-84
2022/06/16 00:21:23;;;;;;;5.53;4.40;;;;;;;13.81;71.68;101842.06;1060798;27;20042;-84
2022/06/16 00:21:55;;;;;;;14.55;5.15;;;;;;;13.77;72.76;101840.03;1052342;28;20142;-84
2022/06/16 00:22:27;;;;;;;7.43;4.50;;;;;;;13.36;73.09;101849.22;1052179;28;20043;-84
2022/06/16 00:22:59;;;;;;;5.68;4.20;;;;;;;13.25;74.07;101850.72;1048005;28;20509;-84
2022/06/16 00:23:31;;;;;;;6.70;5.28;;;;;;;13.47;74.69;101861.97;1046399;28;20132;-83
2022/06/16 00:24:09;;;;;;;7.45;4.72;;;;;;;13.46;74.96;101854.97;1043120;28;20384;-84
2022/06/16 00:24:40;;;;;;;6.88;5.55;;;;;;;13.42;75.05;101847.56;1045532;28;20142;-83
2022/06/16 00:25:13;;;;;;;7.57;4.72;;;;;;;13.51;74.36;101840.97;1053587;28;20414;-84
2022/06/16 00:25:44;;;;;;;9.32;5.00;;;;;;;13.65;73.56;101834.50;1051398;28;20040;-83
2022/06/16 00:26:19;;;;;;;4.85;4.32;;;;;;;13.69;72.40;101830.38;1048513;28;20036;-83
2022/06/16 00:26:51;;;;;;;6.38;5.10;;;;;;;13.76;71.01;101825.00;1049132;28;20102;-83
2022/06/16 00:27:23;;;;;;;8.52;4.82;;;;;;;13.82;71.28;101814.25;1053245;28;20470;-84
2022/06/16 00:27:55;;;;;;;6.95;4.90;;;;;;;13.88;70.72;101821.44;1050024;28;20111;-83
2022/06/16 00:28:27;;;;;;;10.82;5.45;;;;;;;13.91;70.73;101804.94;1057352;27;20522;-84
2022/06/16 00:28:58;;;;;;;4.93;4.30;;;;;;;13.91;70.55;101814.81;1057878;27;20036;-83
2022/06/16 00:29:33;;;;;;;5.78;4.72;;;;;;;13.89;70.78;101812.38;1051997;28;20097;-83
2022/06/16 00:30:07;;;;;;;5.63;4.57;;;;;;;13.88;70.77;101810.72;1048509;28;20631;-84
2022/06/16 00:30:38;;;;;;;5.30;4.13;;;;;;;13.85;70.50;101816.50;1054455;28;20032;-81
2022/06/16 00:31:15;;;;;;;5.82;4.55;;;;;;;13.79;71.58;101817.38;1055446;27;20047;-83
2022/06/16 00:31:47;;;;;;;5.15;4.75;;;;;;;13.88;71.11;101816.09;1056183;28;20036;-84
2022/06/16 00:32:19;;;;;;;5.88;4.00;;;;;;;13.75;71.03;101820.69;1050990;28;20513;-84
2022/06/16 00:32:50;;;;;;;9.40;4.65;;;;;;;13.82;70.65;101814.25;1051928;28;20036;-83
2022/06/16 00:33:22;;;;;;;5.25;4.72;;;;;;;13.65;72.34;101822.97;1053214;27;20052;-83
2022/06/16 00:33:53;;;;;;;11.57;4.63;;;;;;;13.78;71.60;101815.72;1053951;27;20040;-84
2022/06/16 00:34:25;;;;;;;6.70;4.85;;;;;;;13.74;71.38;101811.84;1060725;27;20128;-83
2022/06/16 00:34:57;;;;;;;8.45;5.15;;;;;;;13.78;71.04;101812.22;1057592;27;20067;-84
2022/06/16 00:35:29;;;;;;;5.20;4.35;;;;;;;13.90;70.40;101803.28;1047624;28;20495;-84
2022/06/16 00:36:00;;;;;;;7.10;4.65;;;;;;;13.91;69.78;101804.94;1045986;28;20045;-84
2022/06/16 00:36:32;;;;;;;8.80;6.03;;;;;;;13.88;70.18;101805.38;1043702;28;20045;-83
2022/06/16 00:37:04;;;;;;;7.78;4.82;;;;;;;13.80;70.61;101807.47;1052729;28;20052;-81
2022/06/16 00:37:35;;;;;;;4.90;4.43;;;;;;;13.81;71.10;101815.31;1046083;28;20041;-80
2022/06/16 00:38:07;;;;;;;5.13;4.65;;;;;;;13.80;70.99;101818.19;1051326;28;20052;-81
2022/06/16 00:38:39;;;;;;;5.80;5.15;;;;;;;13.79;71.46;101822.72;1047352;28;20048;-81
2022/06/16 00:39:11;;;;;;;6.15;4.97;;;;;;;13.80;70.58;101824.38;1051985;28;20414;-81
2022/06/16 00:39:43;;;;;;;10.25;5.72;;;;;;;13.78;71.25;101821.09;1045990;28;20036;-80
2022/06/16 00:40:15;;;;;;;8.18;5.20;;;;;;;13.76;70.94;101823.16;1046716;28;20438;-81
2022/06/16 00:40:47;;;;;;;6.00;4.78;;;;;;;13.74;71.26;101819.88;1050740;28;20028;-82
2022/06/16 00:41:19;;;;;;;6.05;4.70;;;;;;;13.75;71.64;101824.19;1045669;28;20620;-81
2022/06/16 00:41:50;;;;;;;7.60;5.10;;;;;;;13.65;72.74;101837.19;1047909;28;20040;-81
2022/06/16 00:42:24;;;;;;;8.70;5.05;;;;;;;13.64;72.14;101829.38;1044363;28;20144;-81
2022/06/16 00:42:55;;;;;;;6.57;4.97;;;;;;;13.73;71.67;101820.91;1048605;28;20113;-81
2022/06/16 00:43:27;;;;;;;6.82;5.15;;;;;;;13.71;70.89;101817.63;1052286;28;20040;-81
2022/06/16 00:44:06;;;;;;;5.40;4.72;;;;;;;13.81;70.83;101815.31;1050289;28;20417;-81
2022/06/16 00:44:46;;;;;;;5.38;4.22;;;;;;;13.77;71.39;101819.44;1051675;28;20134;-81
2022/06/16 00:45:56;;;;;;;5.07;4.68;;;;;;;13.70;72.21;101824.00;1050851;28;20063;-81
2022/06/16 00:46:29;;;;;;;7.13;4.47;;;;;;;13.70;71.01;101832.06;1047816;28;20032;-81
2022/06/16 00:47:01;;;;;;;8.55;4.55;;;;;;;13.71;71.79;101825.66;1050721;28;20040;-81
2022/06/16 00:47:33;;;;;;;11.15;4.97;;;;;;;13.71;71.95;101825.66;1051681;28;20068;-81
2022/06/16 00:48:05;;;;;;;11.23;4.97;;;;;;;13.70;71.57;101831.22;1051824;28;20623;-81
2022/06/16 00:48:45;;;;;;;5.07;4.00;;;;;;;13.66;71.76;101822.78;1050993;28;20131;-81
2022/06/16 00:49:37;;;;;;;7.43;4.18;;;;;;;13.70;72.07;101823.19;1055814;28;20046;-81
2022/06/16 00:50:08;;;;;;;5.93;4.07;;;;;;;13.74;71.16;101825.22;1055917;28;20045;-81
2022/06/16 00:50:42;;;;;;;5.55;4.57;;;;;;;13.77;71.23;101834.69;1045718;28;20047;-81
2022/06/16 00:51:21;;;;;;;8.65;4.78;;;;;;;13.79;70.93;101822.72;1051243;28;20095;-80
2022/06/16 00:51:55;;;;;;;5.97;4.60;;;;;;;13.79;71.19;101822.72;1047569;28;20036;-81
2022/06/16 00:52:31;;;;;;;4.82;4.38;;;;;;;13.84;71.00;101828.25;1047703;28;20572;-81
2022/06/16 00:53:03;;;;;;;7.78;4.43;;;;;;;13.83;71.30;101823.94;1047599;28;20302;-81
2022/06/16 00:53:36;;;;;;;5.55;4.55;;;;;;;13.77;71.05;101824.81;1051652;28;20052;-81
2022/06/16 00:54:13;;;;;;;6.03;4.72;;;;;;;13.72;71.45;101827.31;1043432;28;20674;-80
2022/06/16 00:55:07;;;;;;;7.00;4.53;;;;;;;13.82;71.55;101833.00;1049714;28;20032;-81
2022/06/16 00:55:39;;;;;;;10.80;4.32;;;;;;;13.76;71.56;101833.88;1051887;28;20048;-81
2022/06/16 00:56:14;;;;;;;7.22;4.50;;;;;;;13.73;71.95;101841.50;1051330;28;20425;-80
2022/06/16 00:56:51;;;;;;;7.70;4.30;;;;;;;13.80;72.51;101839.63;1047520;28;20174;-81
2022/06/16 00:57:28;;;;;;;5.05;3.55;;;;;;;13.89;72.92;101849.03;1047225;28;20040;-81
2022/06/16 00:58:00;;;;;;;4.72;4.28;;;;;;;13.55;73.93;101850.22;1048659;28;20126;-81
2022/06/16 00:58:33;;;;;;;4.72;4.30;;;;;;;13.59;74.69;101854.94;1047885;28;20047;-81
2022/06/16 00:59:07;;;;;;;5.13;4.65;;;;;;;13.53;73.57;101849.59;1049724;28;20128;-81
2022/06/16 00:59:39;;;;;;;5.93;4.63;;;;;;;13.57;73.71;101846.28;1051664;28;20469;-80
2022/06/16 01:00:20;;;;;;;7.88;4.60;;;;;;;13.62;73.74;101848.31;1054230;28;20051;-81
2022/06/16 01:00:52;;;;;;;9.35;5.45;;;;;;;13.69;72.49;101843.75;1050493;28;20040;-81
2022/06/16 01:01:24;;;;;;;5.82;4.22;;;;;;;13.69;72.34;101832.22;1051968;28;20036;-81
2022/06/16 01:01:56;;;;;;;7.65;5.25;;;;;;;13.67;72.64;101834.31;1051425;28;20410;-81
2022/06/16 01:02:29;;;;;;;5.07;4.60;;;;;;;13.68;71.97;101831.41;1049168;28;20173;-81
2022/06/16 01:03:01;;;;;;;11.40;4.63;;;;;;;13.75;72.25;101834.91;1041693;28;20315;-81
2022/06/16 01:05:15;;;;;;;9.27;4.72;;;;;;;13.77;71.62;101835.50;1052752;28;20670;-81
2022/06/16 01:05:47;;;;;;;4.82;4.32;;;;;;;13.69;71.83;101832.22;1052018;28;20082;-81
2022/06/16 01:06:29;;;;;;;5.28;4.55;;;;;;;13.66;72.08;101832.66;1050641;28;20539;-81
2022/06/16 01:07:09;;;;;;;9.85;4.55;;;;;;;13.59;71.70;101822.81;1045419;28;20049;-81
2022/06/16 01:07:43;;;;;;;6.15;4.18;;;;;;;13.51;73.83;101838.28;1049418;28;20044;-81
2022/06/16 01:08:15;;;;;;;4.30;3.90;;;;;;;13.45;73.75;101849.84;1060214;27;20039;-81
2022/06/16 01:08:48;;;;;;;10.70;4.13;;;;;;;13.57;73.84;101845.47;1054437;28;20035;-81
2022/06/16 01:09:23;;;;;;;7.90;4.15;;;;;;;13.51;74.28;101840.97;1055689;28;20039;-81
2022/06/16 01:09:55;;;;;;;7.50;4.20;;;;;;;13.49;73.83;101843.84;1047573;28;20047;-81
2022/06/16 01:10:33;;;;;;;6.68;4.68;;;;;;;13.45;74.20;101848.00;1047605;28;20036;-81
2022/06/16 01:11:10;;;;;;;5.72;4.47;;;;;;;12.97;75.03;101844.75;1047492;28;20563;-81
2022/06/16 01:13:54;;;;;;;5.78;4.18;;;;;;;12.75;77.19;101862.03;1052745;28;20043;-81
2022/06/16 01:14:42;;;;;;;7.40;4.93;;;;;;;12.59;77.91;101857.91;1055050;28;20122;-81
2022/06/16 01:15:23;;;;;;;9.20;4.70;;;;;;;12.66;77.80;101851.56;1049500;28;20137;-81
2022/06/16 01:16:00;;;;;;;;;;;;;;;12.49;77.02;101858.31;1047824;28;20118;-81
2022/06/16 01:16:42;;;;;;;10.23;5.00;;;;;;;12.47;77.95;101860.38;1045648;28;20014;-81
2022/06/16 01:17:31;;;;;;;6.40;4.53;;;;;;;12.56;77.86;101858.31;1050098;28;20353;-81
2022/06/16 01:18:15;;;;;;;9.85;5.53;;;;;;;12.40;78.28;101854.19;1047724;28;20290;-81
2022/06/16 01:19:27;;;;;;;6.13;4.57;;;;;;;12.74;78.12;101857.72;1050154;28;20037;-81
2022/06/16 01:20:14;;;;;;;8.20;4.82;;;;;;;12.20;78.77;101853.31;1054274;28;20385;-81
2022/06/16 01:21:02;;;;;;;8.75;5.28;;;;;;;12.22;79.16;101853.94;1054991;28;20040;-81
2022/06/16 01:21:39;;;;;;;7.28;5.60;;;;;;;12.44;79.26;101860.78;1056584;28;20301;-81
2022/06/16 01:22:52;;;;;;;6.55;4.53;;;;;;;12.79;78.23;101852.56;1056077;28;20312;-81
2022/06/16 01:23:48;;;;;;;7.50;4.68;;;;;;;12.85;77.06;101841.03;1040107;28;20065;-83
2022/06/16 01:24:29;;;;;;;5.13;4.20;;;;;;;12.76;76.09;101843.09;1060547;27;20085;-84
2022/06/16 01:25:22;;;;;;;6.72;5.15;;;;;;;12.86;76.55;101848.03;1060593;27;20042;-83
2022/06/16 01:26:13;;;;;;;5.85;5.10;;;;;;;12.96;77.11;101843.09;1057575;27;20542;-83
2022/06/16 01:27:11;;;;;;;5.65;3.88;;;;;;;12.95;76.59;101844.13;1054864;28;20305;-84
2022/06/16 01:28:09;;;;;;;14.20;5.13;;;;;;;12.87;75.89;101833.63;1049421;28;20391;-83
2022/06/16 01:28:55;;;;;;;186.55;20.45;;;;;;;12.89;76.41;101842.28;1052642;28;20298;-83
2022/06/16 01:29:47;;;;;;;196.82;23.00;;;;;;;12.97;76.09;101845.56;1054000;28;20040;-83
2022/06/16 01:30:29;;;;;;;142.90;15.98;;;;;;;12.85;77.14;101846.38;1055311;27;20304;-84
2022/06/16 01:31:06;;;;;;;;;;;;;;;12.86;76.56;101837.34;1057069;28;20035;-84
2022/06/16 01:31:54;;;;;;;83.40;15.50;;;;;;;12.77;76.71;101849.28;1058587;28;20428;-83
2022/06/16 01:32:42;;;;;;;99.18;14.45;;;;;;;12.80;77.04;101838.16;1056304;28;20490;-84
2022/06/16 01:33:23;;;;;;;69.13;12.10;;;;;;;12.94;76.42;101839.81;1060299;28;20050;-83
2022/06/16 01:34:07;;;;;;;67.88;10.65;;;;;;;12.63;76.92;101843.94;1056361;28;20405;-84
2022/06/16 01:34:48;;;;;;;72.10;13.00;;;;;;;12.64;77.01;101845.59;1051538;28;20040;-84
2022/06/16 01:35:41;;;;;;;67.95;10.50;;;;;;;12.81;76.81;101839.81;1052043;28;20310;-84
2022/06/16 01:36:23;;;;;;;55.05;10.40;;;;;;;12.81;76.46;101834.47;1047800;28;20299;-84
2022/06/16 01:36:57;;;;;;;22.10;8.20;;;;;;;12.64;76.55;101845.59;1056337;28;20171;-84
2022/06/16 01:37:44;;;;;;;28.98;7.45;;;;;;;12.63;76.89;101843.94;1051623;28;20305;-83
2022/06/16 01:38:25;;;;;;;22.55;7.13;;;;;;;12.68;76.67;101844.16;1047830;28;20299;-83
2022/06/16 01:39:38;;;;;;;26.63;7.03;;;;;;;12.51;77.08;101850.91;1045740;28;20666;-83
2022/06/16 01:40:18;;;;;;;29.40;7.22;;;;;;;12.55;77.28;101848.66;1040851;28;20041;-83
2022/06/16 01:41:04;;;;;;;11.27;5.13;;;;;;;12.56;76.66;101851.09;1032488;28;20800;-84
2022/06/16 01:41:42;;;;;;;27.85;7.30;;;;;;;12.56;76.72;101847.63;1031101;28;20758;-83
2022/06/16 01:42:34;;;;;;;9.68;5.30;;;;;;;12.60;76.92;101855.03;1038340;28;20041;-84
2022/06/16 01:43:19;;;;;;;18.75;6.20;;;;;;;12.37;76.96;101859.94;1042221;28;20049;-83
2022/06/16 01:44:05;;;;;;;12.60;7.25;;;;;;;12.42;77.88;101862.81;1046247;28;20692;-84
2022/06/16 01:44:53;;;;;;;9.93;5.88;;;;;;;12.43;77.63;101858.31;1040138;28;21001;-84
2022/06/16 01:45:39;;;;;;;9.25;5.60;;;;;;;12.40;77.70;101867.56;1036925;28;20695;-84
2022/06/16 01:46:21;;;;;;;11.13;6.47;;;;;;;12.41;77.65;101861.19;1051590;27;20796;-84
2022/06/16 01:47:09;;;;;;;21.35;5.90;;;;;;;12.11;77.51;101865.22;1054363;28;20090;-84
2022/06/16 01:47:42;;;;;;;13.18;6.38;;;;;;;12.11;78.68;101876.72;1056009;28;20036;-83
2022/06/16 01:48:15;;;;;;;8.95;6.22;;;;;;;12.12;78.76;101872.22;1056845;28;20181;-84
2022/06/16 01:48:52;;;;;;;10.60;5.45;;;;;;;12.19;78.77;101876.53;1050845;28;20032;-83
2022/06/16 01:49:33;;;;;;;9.77;6.07;;;;;;;12.12;78.74;101872.22;1052997;28;20059;-83
2022/06/16 01:50:12;;;;;;;7.95;5.82;;;;;;;12.17;78.79;101870.56;1051148;28;20043;-83
2022/06/16 01:50:57;;;;;;;9.75;6.20;;;;;;;12.13;78.61;101874.69;1044484;28;20515;-83
2022/06/16 01:51:36;;;;;;;10.38;5.90;;;;;;;12.19;78.51;101867.69;1047020;28;20298;-84
2022/06/16 01:52:17;;;;;;;9.48;6.68;;;;;;;12.07;78.48;101864.81;1043813;28;20049;-84
2022/06/16 01:53:06;;;;;;;7.40;5.82;;;;;;;11.95;78.88;101861.06;1048508;28;20044;-84
2022/06/16 01:53:42;;;;;;;9.50;5.50;;;;;;;11.93;78.54;101861.25;1045976;28;20322;-83
2022/06/16 01:54:18;;;;;;;6.10;5.55;;;;;;;11.92;78.95;101866.78;1048275;28;20376;-84
2022/06/16 01:54:55;;;;;;;9.30;6.13;;;;;;;11.70;79.55;101874.06;1050988;28;20154;-83
2022/06/16 01:55:35;;;;;;;6.55;5.60;;;;;;;11.60;79.57;101873.59;1049301;28;20291;-84
2022/06/16 01:56:29;;;;;;;8.38;7.18;;;;;;;11.72;80.81;101869.34;1047316;28;20303;-84
2022/06/16 01:57:14;;;;;;;15.20;6.25;;;;;;;11.55;80.99;101868.03;1051272;28;20306;-83
2022/06/16 01:57:52;;;;;;;9.70;5.57;;;;;;;11.62;80.97;101868.91;1056291;28;20305;-83
2022/06/16 01:58:27;;;;;;;10.57;6.05;;;;;;;11.75;80.58;101874.28;1047529;28;20045;-83
2022/06/16 01:59:03;;;;;;;9.73;5.88;;;;;;;11.57;81.29;101868.66;1044391;28;20049;-83
2022/06/16 01:59:40;;;;;;;8.93;6.13;;;;;;;11.68;80.95;101870.75;1055469;28;20306;-83
2022/06/16 02:00:15;;;;;;;13.85;6.20;;;;;;;11.67;80.83;101867.28;1056781;28;20044;-83
2022/06/16 02:00:52;;;;;;;9.88;6.10;;;;;;;11.71;80.12;101870.38;1053033;28;20513;-84
2022/06/16 02:01:29;;;;;;;9.55;5.93;;;;;;;11.86;80.32;101863.09;1050863;28;20401;-83
2022/06/16 02:02:08;;;;;;;10.52;6.30;;;;;;;11.95;79.99;101861.88;1050739;28;20036;-83
2022/06/16 02:02:42;;;;;;;12.45;6.07;;;;;;;12.08;80.19;101853.09;1046876;28;20311;-83
2022/06/16 02:03:44;;;;;;;9.77;7.13;;;;;;;12.14;79.59;101856.81;1052601;28;20044;-83
2022/06/16 02:04:21;;;;;;;8.63;6.30;;;;;;;11.65;79.13;101850.63;1031605;28;20302;-83
2022/06/16 02:05:03;;;;;;;8.18;5.30;;;;;;;11.19;80.46;101866.38;1052790;28;20039;-83
2022/06/16 02:06:03;;;;;;;7.18;6.32;;;;;;;11.36;82.42;101873.06;1055425;28;20289;-83
2022/06/16 02:06:38;;;;;;;13.73;5.60;;;;;;;11.50;81.70;101875.78;1053434;28;20393;-83
2022/06/16 02:07:17;;;;;;;10.63;6.35;;;;;;;11.62;81.42;101872.38;1052801;28;20298;-84
2022/06/16 02:08:17;;;;;;;9.02;5.28;;;;;;;11.01;81.32;101868.72;1051479;28;20306;-83
2022/06/16 02:08:53;;;;;;;6.15;5.20;;;;;;;11.50;81.80;101878.47;1048972;28;20306;-84
2022/06/16 02:09:28;;;;;;;7.35;5.93;;;;;;;11.48;81.75;101869.81;1045522;28;20295;-83
2022/06/16 02:10:08;;;;;;;5.82;5.32;;;;;;;11.63;81.75;101867.88;1048166;28;20776;-83
2022/06/16 02:10:46;;;;;;;7.32;6.07;;;;;;;11.33;81.69;101870.78;1047655;28;20299;-83
2022/06/16 02:11:26;;;;;;;11.57;6.15;;;;;;;11.42;82.04;101872.25;1048299;28;20307;-84
2022/06/16 02:12:00;;;;;;;9.93;6.55;;;;;;;11.46;82.11;101873.50;1049121;28;20040;-84
2022/06/16 02:13:41;;;;;;;10.75;6.45;;;;;;;11.22;82.35;101876.66;1046999;28;20399;-83
2022/06/16 02:14:31;;;;;;;7.15;6.45;;;;;;;10.98;83.44;101880.59;1045094;28;20306;-83
2022/06/16 02:15:31;;;;;;;7.28;6.22;;;;;;;10.84;84.42;101886.81;1044161;28;20317;-83
2022/06/16 02:16:14;;;;;;;8.18;5.03;;;;;;;10.66;84.60;101883.78;1053947;28;20802;-83
2022/06/16 02:16:47;;;;;;;9.00;6.00;;;;;;;10.68;84.92;101879.94;1049031;28;20299;-83
2022/06/16 02:17:19;;;;;;;9.63;6.00;;;;;;;10.73;85.40;101876.69;1048496;28;20332;-83
2022/06/16 02:17:51;;;;;;;6.43;5.68;;;;;;;10.58;84.77;101876.75;1046022;28;20306;-83
2022/06/16 02:18:26;;;;;;;6.90;5.93;;;;;;;10.42;84.71;101874.34;1047107;28;20291;-83
2022/06/16 02:18:58;;;;;;;9.35;6.75;;;;;;;10.32;85.22;101879.16;1045954;28;20748;-84
2022/06/16 02:19:31;;;;;;;5.45;5.00;;;;;;;10.26;85.58;101874.59;1046973;28;20295;-83
2022/06/16 02:20:03;;;;;;;7.05;6.30;;;;;;;10.26;86.51;101866.59;1048523;28;20369;-83
2022/06/16 02:20:47;;;;;;;9.85;6.55;;;;;;;10.18;86.72;101876.31;1051137;28;20394;-83
2022/06/16 02:21:33;;;;;;;9.05;6.28;;;;;;;10.17;87.13;101877.34;1046299;28;20802;-83
2022/06/16 02:22:05;;;;;;;8.95;6.32;;;;;;;10.53;86.66;101881.81;1056487;28;20679;-83
2022/06/16 02:22:37;;;;;;;20.33;6.60;;;;;;;10.62;86.08;101870.03;1057040;28;20297;-83
2022/06/16 02:23:08;;;;;;;6.68;6.07;;;;;;;10.45;85.46;101865.97;1055039;28;20302;-83
2022/06/16 02:23:42;;;;;;;12.15;6.13;;;;;;;10.37;84.79;101866.91;1048446;28;20683;-83
2022/06/16 02:24:18;;;;;;;8.48;6.57;;;;;;;10.21;85.24;101872.50;1043588;28;20673;-83
2022/06/16 02:24:49;;;;;;;9.10;6.75;;;;;;;10.03;86.26;101869.38;1042154;28;20402;-84
2022/06/16 02:25:21;;;;;;;10.98;6.25;;;;;;;10.36;85.98;101873.25;1048180;28;20477;-83
2022/06/16 02:25:55;;;;;;;12.20;7.05;;;;;;;10.54;85.49;101880.81;1045003;28;20299;-83
2022/06/16 02:26:27;;;;;;;6.80;6.13;;;;;;;10.47;85.16;101871.94;1052939;28;20340;-83
2022/06/16 02:27:00;;;;;;;9.75;6.45;;;;;;;10.27;85.49;101876.22;1052533;28;20293;-83
2022/06/16 02:27:32;;;;;;;7.20;6.60;;;;;;;10.25;85.76;101872.94;1050819;28;20298;-83
2022/06/16 02:28:04;;;;;;;9.82;5.43;;;;;;;10.46;85.33;101876.44;1044774;28;20315;-83
2022/06/16 02:28:44;;;;;;;7.95;6.35;;;;;;;10.64;85.62;101878.66;1042500;28;20382;-83
2022/06/16 02:29:22;;;;;;;10.38;6.93;;;;;;;10.17;85.48;101872.00;1051212;28;20352;-84
2022/06/16 02:29:54;;;;;;;8.02;6.00;;;;;;;10.47;84.96;101874.59;1050858;28;20044;-84
2022/06/16 02:30:31;;;;;;;9.27;5.88;;;;;;;10.42;85.06;101869.84;1051262;28;20302;-83
2022/06/16 02:31:38;;;;;;;6.22;5.55;;;;;;;10.52;84.42;101864.19;1048716;28;20303;-83
2022/06/16 02:32:24;;;;;;;8.27;5.45;;;;;;;10.20;84.51;101866.34;1051056;28;20297;-83
2022/06/16 02:33:07;;;;;;;7.95;6.03;;;;;;;10.00;85.49;101873.25;1048160;28;20823;-83
2022/06/16 02:34:11;;;;;;;8.07;5.88;;;;;;;10.56;84.97;101867.31;1050739;28;20299;-83
2022/06/16 02:34:58;;;;;;;6.97;5.75;;;;;;;10.51;84.04;101867.88;1043596;28;20312;-83
2022/06/16 02:35:47;;;;;;;8.73;5.45;;;;;;;10.24;85.06;101866.78;1055397;28;20800;-83
2022/06/16 02:36:56;;;;;;;8.30;6.35;;;;;;;10.10;85.78;101871.09;1057469;27;20639;-83
2022/06/16 02:37:31;;;;;;;11.50;6.47;;;;;;;9.76;86.90;101873.56;1039278;28;20292;-83
2022/06/16 02:38:21;;;;;;;8.35;6.70;;;;;;;9.82;87.08;101875.47;1046259;27;20292;-83
2022/06/16 02:39:06;;;;;;;9.35;6.47;;;;;;;9.93;88.15;101883.00;1056887;28;20301;-81
2022/06/16 02:39:41;;;;;;;10.57;6.43;;;;;;;10.24;87.52;101873.94;1051829;28;20385;-81
2022/06/16 02:40:27;;;;;;;10.27;6.78;;;;;;;10.28;87.13;101872.56;1045927;28;20303;-81
2022/06/16 02:41:04;;;;;;;12.68;5.95;;;;;;;10.03;87.37;101875.53;1048195;28;20330;-81
2022/06/16 02:41:50;;;;;;;16.42;7.53;;;;;;;9.67;88.28;101885.31;1047530;28;20803;-81
2022/06/16 02:42:52;;;;;;;12.75;7.20;;;;;;;10.04;88.34;101881.66;1054862;28;20301;-81
2022/06/16 02:43:50;;;;;;;12.02;6.85;;;;;;;9.58;89.03;101888.03;1056569;27;20485;-81
2022/06/16 02:44:41;;;;;;;14.85;7.20;;;;;;;9.93;89.63;101885.66;1057882;27;20290;-80
2022/06/16 02:45:54;;;;;;;12.80;7.65;;;;;;;10.10;89.05;101887.06;1055456;28;20690;-81
2022/06/16 02:46:40;;;;;;;18.73;7.60;;;;;;;9.81;89.19;101881.78;1058611;27;20035;-81
2022/06/16 02:47:47;;;;;;;7.60;6.90;;;;;;;9.47;90.13;101896.50;1060388;27;20296;-81
2022/06/16 02:48:29;;;;;;;8.13;6.50;;;;;;;9.59;91.01;101902.19;1060540;27;20350;-81
2022/06/16 02:49:22;;;;;;;8.68;6.93;;;;;;;9.74;90.01;101894.19;1049105;28;20393;-81
2022/06/16 02:50:02;;;;;;;12.98;7.22;;;;;;;9.70;90.13;101893.75;1044175;28;20347;-81
2022/06/16 02:50:45;;;;;;;7.88;7.07;;;;;;;9.46;89.67;101899.34;1047029;28;20835;-81
2022/06/16 02:51:27;;;;;;;11.25;6.63;;;;;;;9.51;90.28;101903.09;1056285;28;20339;-81
2022/06/16 02:52:14;;;;;;;8.82;6.68;;;;;;;10.02;89.34;101895.16;1049980;28;20309;-81
2022/06/16 02:52:52;;;;;;;10.35;6.90;;;;;;;10.14;89.00;101899.03;1043905;28;20649;-81
2022/06/16 02:53:56;;;;;;;15.20;8.77;;;;;;;10.17;88.67;101901.31;1040586;28;20299;-81
2022/06/16 02:54:28;;;;;;;7.78;7.07;;;;;;;10.25;88.30;101905.72;1051382;28;20302;-81
2022/06/16 02:55:05;;;;;;;15.80;7.63;;;;;;;10.43;87.98;101898.13;1044424;28;20329;-81
2022/06/16 02:55:42;;;;;;;11.88;7.22;;;;;;;10.42;87.18;101901.81;1048101;28;20732;-81
2022/06/16 02:56:58;;;;;;;9.02;7.43;;;;;;;10.64;86.94;101897.28;1043468;28;20989;-81
2022/06/16 02:57:46;;;;;;;8.15;7.38;;;;;;;10.32;86.94;101890.63;1040459;28;20303;-81
2022/06/16 02:58:21;;;;;;;;;;;;;;;10.27;87.18;101894.88;1052820;28;20302;-81
2022/06/16 02:58:58;;;;;;;10.55;6.75;;;;;;;9.96;87.29;101895.09;1047852;28;19920;-81
2022/06/16 02:59:38;;;;;;;10.18;7.82;;;;;;;9.80;87.58;101901.44;1047899;28;20662;-81
2022/06/16 03:00:41;;;;;;;9.13;8.05;;;;;;;9.88;88.45;101906.69;1047711;28;20503;-81
2022/06/16 03:01:13;;;;;;;7.57;6.55;;;;;;;10.00;88.16;101907.03;1049817;28;20314;-82
2022/06/16 03:01:45;;;;;;;11.50;7.07;;;;;;;9.76;87.66;101894.84;1048640;28;20862;-81
2022/06/16 03:02:22;;;;;;;8.73;7.85;;;;;;;9.98;88.25;101903.72;1047509;28;20298;-81
2022/06/16 03:02:54;;;;;;;10.95;7.85;;;;;;;9.89;88.32;101901.16;1047639;28;20321;-81
2022/06/16 03:03:33;;;;;;;8.27;6.93;;;;;;;10.09;87.27;101911.22;1054588;28;20306;-81
2022/06/16 03:04:13;;;;;;;9.70;7.25;;;;;;;9.92;87.92;101910.63;1047691;28;20311;-81
2022/06/16 03:04:51;;;;;;;9.65;7.15;;;;;;;10.09;86.86;101916.53;1052032;28;20393;-81
2022/06/16 03:05:24;;;;;;;12.55;7.07;;;;;;;10.17;87.20;101914.63;1049260;28;20318;-81
2022/06/16 03:05:57;;;;;;;9.10;8.20;;;;;;;10.14;86.86;101912.34;1045867;28;20461;-81